createdAt,value
2018-04-28T00:00:33.649Z,6.50
2018-04-28T00:03:01.789Z,6.60
2018-04-28T00:05:29.217Z,6.40
2018-04-28T00:07:56.749Z,7.00
2018-04-28T00:10:24.129Z,6.80
2018-04-28T00:12:51.595Z,6.30
2018-04-28T00:15:19.029Z,6.20
2018-04-28T00:17:46.464Z,6.20
2018-04-28T00:20:14.580Z,6.60
2018-04-28T00:23:09.563Z,6.10
2018-04-28T00:25:41.550Z,6.03
2018-04-28T00:28:32.633Z,6.10
2018-04-28T00:31:17.526Z,6.20
2018-04-28T00:33:46.632Z,6.47
2018-04-28T00:36:16.574Z,5.37
2018-04-28T00:38:50.575Z,6.20
2018-04-28T00:41:17.994Z,6.30
2018-04-28T00:43:45.422Z,6.67
2018-04-28T00:46:28.586Z,5.97
2018-04-28T00:49:14.554Z,6.77
2018-04-28T00:51:42.049Z,7.33
2018-04-28T00:54:15.965Z,7.10
2018-04-28T00:56:50.367Z,7.00
2018-04-28T00:59:19.476Z,7.77
2018-04-28T01:01:46.913Z,7.20
2018-04-28T01:04:15.201Z,7.00
2018-04-28T01:06:44.109Z,7.23
2018-04-28T01:09:11.537Z,7.70
2018-04-28T01:11:44.748Z,8.73
2018-04-28T01:14:12.193Z,8.83
2018-04-28T01:16:54.513Z,8.53
2018-04-28T01:19:30.349Z,8.87
2018-04-28T01:22:02.291Z,7.50
2018-04-28T01:24:42.776Z,8.50
2018-04-28T01:40:30.924Z,7.50
2018-04-28T01:43:14.000Z,7.83
2018-04-28T01:45:51.517Z,7.07
2018-04-28T01:48:20.908Z,7.53
2018-04-28T02:04:15.945Z,6.17
2018-04-28T02:06:59.914Z,7.03
2018-04-28T02:09:28.178Z,6.90
2018-04-28T02:12:01.433Z,7.30
2018-04-28T02:14:36.537Z,6.87
2018-04-28T02:17:07.813Z,6.30
2018-04-28T02:19:50.885Z,8.17
2018-04-28T02:35:52.005Z,6.80
2018-04-28T02:38:19.425Z,7.10
2018-04-28T02:40:48.385Z,7.27
2018-04-28T02:43:17.831Z,7.40
2018-04-28T02:45:51.083Z,7.50
2018-04-28T02:48:20.421Z,7.10
2018-04-28T03:04:29.803Z,7.40
2018-04-28T03:20:36.621Z,8.53
2018-04-28T03:23:04.757Z,8.23
2018-04-28T03:25:35.590Z,8.90
2018-04-28T03:28:15.856Z,8.90
2018-04-28T03:30:48.767Z,9.37
2018-04-28T03:33:30.037Z,8.30
2018-04-28T03:35:57.467Z,9.67
2018-04-28T03:38:30.809Z,8.57
2018-04-28T03:40:58.233Z,9.80
2018-04-28T03:43:30.428Z,8.63
2018-04-28T03:46:06.280Z,8.57
2018-04-28T03:48:56.205Z,8.90
2018-04-28T03:51:24.426Z,8.37
2018-04-28T03:54:00.414Z,8.20
2018-04-28T03:56:33.790Z,9.00
2018-04-28T03:59:12.966Z,9.67
2018-04-28T04:01:52.254Z,9.10
2018-04-28T04:04:29.596Z,9.03
2018-04-28T04:07:17.537Z,9.20
2018-04-28T04:10:07.647Z,8.73
2018-04-28T04:12:45.915Z,10.00
2018-04-28T04:28:42.661Z,8.43
2018-04-28T04:44:49.019Z,9.37
2018-04-28T04:47:43.184Z,9.60
2018-04-28T04:50:22.557Z,9.10
2018-04-28T05:07:08.198Z,8.60
2018-04-28T05:23:08.937Z,8.93
2018-04-28T05:39:24.653Z,9.13
2018-04-28T05:55:41.598Z,8.63
2018-04-28T05:58:17.466Z,8.40
2018-04-28T06:00:53.324Z,10.03
2018-04-28T06:03:24.328Z,9.87
2018-04-28T06:06:10.416Z,10.10
2018-04-28T06:08:53.456Z,8.90
2018-04-28T06:11:31.630Z,8.27
2018-04-28T06:14:08.018Z,9.20
2018-04-28T06:30:00.961Z,8.67
2018-04-28T06:32:28.387Z,8.90
2018-04-28T06:34:55.817Z,9.63
2018-04-28T06:37:23.335Z,9.27
2018-04-28T06:39:50.776Z,10.57
2018-04-28T06:42:18.229Z,10.30
2018-04-28T06:44:45.702Z,9.40
2018-04-28T06:47:13.120Z,8.20
2018-04-28T06:49:40.546Z,7.80
2018-04-28T06:52:08.065Z,7.60
2018-04-28T06:54:35.505Z,8.00
2018-04-28T06:57:03.057Z,7.40
2018-04-28T06:59:30.500Z,8.03
2018-04-28T07:01:57.932Z,9.10
2018-04-28T07:04:25.400Z,14.00
2018-04-28T07:06:52.962Z,8.90
2018-04-28T07:09:20.478Z,8.00
2018-04-28T07:11:47.904Z,7.50
2018-04-28T07:14:15.397Z,8.20
2018-04-28T07:16:42.828Z,8.33
2018-04-28T07:19:10.333Z,8.77
2018-04-28T07:21:37.773Z,8.13
2018-04-28T07:24:05.210Z,8.33
2018-04-28T07:26:32.649Z,15.00
2018-04-28T07:29:00.136Z,8.50
2018-04-28T07:31:27.569Z,8.53
2018-04-28T07:33:55.048Z,8.93
2018-04-28T07:36:22.493Z,6.97
2018-04-28T07:38:49.921Z,6.20
2018-04-28T07:41:17.426Z,5.57
2018-04-28T07:43:44.870Z,6.07
2018-04-28T07:46:12.303Z,4.23
2018-04-28T07:48:39.795Z,5.10
2018-04-28T07:51:07.241Z,4.57
2018-04-28T07:53:34.664Z,5.80
2018-04-28T07:56:02.167Z,4.47
2018-04-28T07:58:29.601Z,5.03
2018-04-28T08:00:57.030Z,5.07
2018-04-28T08:03:24.453Z,5.33
2018-04-28T08:05:51.945Z,3.50
2018-04-28T08:08:19.370Z,3.07
2018-04-28T08:10:46.794Z,4.27
2018-04-28T08:13:14.237Z,3.87
2018-04-28T08:15:41.713Z,3.73
2018-04-28T08:18:09.136Z,4.10
2018-04-28T08:20:36.616Z,3.83
2018-04-28T08:23:04.028Z,3.53
2018-04-28T08:25:31.462Z,3.20
2018-04-28T08:27:58.895Z,3.90
2018-04-28T08:30:26.356Z,4.50
2018-04-28T08:32:53.817Z,4.47
2018-04-28T08:35:21.251Z,3.20
2018-04-28T08:37:48.989Z,3.40
2018-04-28T08:40:16.414Z,3.37
2018-04-28T08:42:43.854Z,3.37
2018-04-28T08:45:11.285Z,4.23
2018-04-28T08:47:38.705Z,2.80
2018-04-28T08:50:06.149Z,3.00
2018-04-28T08:52:33.573Z,2.63
2018-04-28T08:55:01.009Z,3.40
2018-04-28T08:57:28.456Z,2.93
2018-04-28T09:00:07.905Z,2.97
2018-04-28T09:02:35.343Z,3.03
2018-04-28T09:05:02.765Z,2.60
2018-04-28T09:07:39.189Z,2.30
2018-04-28T09:10:06.630Z,3.23
2018-04-28T09:12:34.073Z,3.63
2018-04-28T09:15:01.584Z,2.00
2018-04-28T09:17:29.029Z,2.70
2018-04-28T09:19:56.447Z,2.40
2018-04-28T09:22:23.898Z,2.30
2018-04-28T09:24:51.327Z,2.03
2018-04-28T09:27:18.759Z,2.23
2018-04-28T09:29:46.196Z,2.30
2018-04-28T09:32:13.646Z,2.60
2018-04-28T09:34:41.080Z,2.50
2018-04-28T09:37:08.527Z,2.23
2018-04-28T09:39:35.956Z,2.13
2018-04-28T09:42:03.382Z,2.77
2018-04-28T09:44:30.830Z,2.27
2018-04-28T09:46:58.332Z,1.53
2018-04-28T09:49:25.757Z,1.97
2018-04-28T09:51:53.205Z,2.00
2018-04-28T09:54:20.633Z,1.90
2018-04-28T09:56:48.057Z,2.27
2018-04-28T09:59:15.489Z,1.93
2018-04-28T10:01:42.899Z,1.70
2018-04-28T10:04:15.923Z,4.57
2018-04-28T10:06:43.341Z,2.00
2018-04-28T10:09:10.781Z,2.23
2018-04-28T10:11:38.222Z,1.80
2018-04-28T10:14:05.664Z,2.90
2018-04-28T10:16:33.129Z,2.20
2018-04-28T10:19:00.576Z,1.30
2018-04-28T10:21:27.996Z,2.10
2018-04-28T10:23:55.424Z,1.60
2018-04-28T10:26:23.032Z,1.43
2018-04-28T10:28:50.452Z,1.53
2018-04-28T10:31:17.948Z,1.40
2018-04-28T10:33:45.432Z,1.07
2018-04-28T10:36:12.866Z,1.60
2018-04-28T10:38:40.348Z,1.60
2018-04-28T10:41:07.784Z,1.30
2018-04-28T10:43:35.212Z,1.17
2018-04-28T10:46:02.636Z,1.70
2018-04-28T10:48:30.081Z,1.37
2018-04-28T10:50:57.513Z,1.37
2018-04-28T10:53:25.050Z,1.30
2018-04-28T10:55:52.519Z,1.50
2018-04-28T10:58:20.113Z,1.50
2018-04-28T11:00:47.533Z,1.60
2018-04-28T11:03:14.976Z,1.10
2018-04-28T11:05:42.401Z,1.30
2018-04-28T11:08:09.833Z,1.20
2018-04-28T11:10:37.277Z,1.50
2018-04-28T11:13:04.717Z,1.50
2018-04-28T11:15:32.149Z,15.77
2018-04-28T11:17:59.658Z,1.57
2018-04-28T11:20:27.113Z,1.77
2018-04-28T11:22:54.583Z,1.27
2018-04-28T11:25:22.025Z,1.40
2018-04-28T11:27:49.445Z,1.10
2018-04-28T11:30:16.943Z,1.50
2018-04-28T11:32:44.382Z,1.30
2018-04-28T11:35:11.808Z,1.10
2018-04-28T11:37:39.225Z,1.70
2018-04-28T11:40:06.672Z,1.20
2018-04-28T11:42:34.120Z,1.10
2018-04-28T11:45:01.552Z,1.75
2018-04-28T11:47:28.991Z,1.60
2018-04-28T11:49:56.413Z,1.30
2018-04-28T11:52:23.832Z,1.20
2018-04-28T11:54:51.274Z,1.55
2018-04-28T11:57:18.692Z,1.30
2018-04-28T11:59:46.219Z,1.65
2018-04-28T12:02:13.673Z,1.65
2018-04-28T12:04:41.141Z,1.73
2018-04-28T12:07:08.561Z,1.58
2018-04-28T12:09:35.995Z,1.70
2018-04-28T12:12:03.497Z,1.35
2018-04-28T12:14:30.917Z,1.50
2018-04-28T12:16:58.349Z,1.58
2018-04-28T12:19:25.769Z,1.67
2018-04-28T12:21:53.305Z,1.70
2018-04-28T12:24:20.741Z,1.55
2018-04-28T12:26:48.245Z,1.35
2018-04-28T12:29:15.675Z,1.50
2018-04-28T12:31:43.122Z,1.45
2018-04-28T12:34:10.586Z,1.40
2018-04-28T12:36:38.014Z,1.58
2018-04-28T12:39:05.506Z,1.85
2018-04-28T12:41:32.930Z,1.40
2018-04-28T12:44:00.448Z,1.20
2018-04-28T12:46:27.883Z,1.67
2018-04-28T12:48:55.307Z,1.52
2018-04-28T12:51:22.890Z,1.60
2018-04-28T12:53:50.325Z,1.20
2018-04-28T12:56:17.940Z,1.35
2018-04-28T12:58:45.357Z,1.42
2018-04-28T13:01:12.791Z,2.80
2018-04-28T13:03:40.213Z,1.35
2018-04-28T13:06:07.745Z,1.95
2018-04-28T13:08:35.112Z,1.95
2018-04-28T13:11:02.573Z,1.67
2018-04-28T13:13:29.997Z,1.70
2018-04-28T13:15:57.429Z,1.83
2018-04-28T13:18:24.853Z,1.90
2018-04-28T13:20:52.281Z,1.62
2018-04-28T13:23:19.722Z,2.08
2018-04-28T13:25:47.212Z,1.73
2018-04-28T13:28:14.642Z,6.50
2018-04-28T13:30:42.080Z,1.42
2018-04-28T13:33:09.508Z,1.48
2018-04-28T13:35:36.956Z,1.45
2018-04-28T13:38:04.414Z,1.70
2018-04-28T13:40:31.832Z,2.00
2018-04-28T13:42:59.292Z,1.87
2018-04-28T13:45:26.745Z,1.80
2018-04-28T13:47:54.306Z,1.73
2018-04-28T13:50:21.728Z,1.60
2018-04-28T13:52:49.162Z,1.77
2018-04-28T13:55:16.586Z,1.92
2018-04-28T13:57:44.010Z,1.92
2018-04-28T14:00:11.508Z,2.50
2018-04-28T14:02:38.933Z,2.28
2018-04-28T14:05:06.362Z,2.35
2018-04-28T14:07:33.799Z,1.83
2018-04-28T14:10:01.222Z,2.25
2018-04-28T14:12:28.690Z,1.90
2018-04-28T14:14:56.138Z,1.80
2018-04-28T14:17:23.565Z,2.15
2018-04-28T14:19:50.985Z,2.30
2018-04-28T14:22:18.509Z,1.90
2018-04-28T14:24:46.885Z,2.20
2018-04-28T14:27:14.367Z,2.83
2018-04-28T14:29:41.800Z,1.92
2018-04-28T14:32:09.343Z,2.20
2018-04-28T14:34:36.765Z,2.42
2018-04-28T14:37:04.196Z,2.47
2018-04-28T14:39:31.672Z,1.87
2018-04-28T14:41:59.141Z,1.80
2018-04-28T14:44:26.572Z,1.87
2018-04-28T14:46:53.996Z,2.00
2018-04-28T14:49:21.460Z,2.17
2018-04-28T14:51:48.892Z,1.80
2018-04-28T14:54:16.312Z,1.83
2018-04-28T14:56:44.558Z,1.70
2018-04-28T14:59:12.014Z,1.83
2018-04-28T15:01:39.450Z,1.70
2018-04-28T15:04:06.882Z,2.30
2018-04-28T15:06:34.321Z,5.47
2018-04-28T15:09:01.745Z,5.03
2018-04-28T15:11:29.165Z,4.10
2018-04-28T15:13:56.653Z,2.07
2018-04-28T15:16:24.078Z,2.30
2018-04-28T15:18:51.497Z,2.30
2018-04-28T15:21:18.925Z,2.23
2018-04-28T15:23:46.368Z,2.50
2018-04-28T15:26:13.827Z,2.27
2018-04-28T15:28:41.276Z,2.63
2018-04-28T15:31:08.712Z,2.27
2018-04-28T15:33:36.196Z,2.00
2018-04-28T15:36:03.642Z,2.40
2018-04-28T15:38:31.068Z,1.90
2018-04-28T15:40:58.500Z,1.80
2018-04-28T15:43:26.028Z,2.30
2018-04-28T15:45:53.480Z,2.17
2018-04-28T15:48:20.924Z,2.67
2018-04-28T15:50:48.380Z,2.70
2018-04-28T15:53:15.810Z,2.53
2018-04-28T15:55:43.310Z,2.50
2018-04-28T15:58:10.765Z,2.20
2018-04-28T16:00:38.220Z,2.30
2018-04-28T16:03:05.681Z,2.60
2018-04-28T16:05:33.137Z,2.03
2018-04-28T16:08:00.595Z,5.50
2018-04-28T16:10:28.055Z,5.20
2018-04-28T16:12:55.549Z,2.90
2018-04-28T16:15:22.976Z,3.30
2018-04-28T16:17:50.618Z,2.10
2018-04-28T16:20:18.089Z,2.20
2018-04-28T16:22:45.546Z,2.93
2018-04-28T16:25:12.989Z,2.70
2018-04-28T16:27:40.420Z,2.87
2018-04-28T16:30:07.857Z,2.13
2018-04-28T16:32:35.287Z,2.23
2018-04-28T16:35:02.725Z,2.37
2018-04-28T16:37:30.181Z,2.60
2018-04-28T16:39:57.636Z,2.00
2018-04-28T16:42:25.068Z,2.17
2018-04-28T16:44:52.500Z,8.33
2018-04-28T16:47:19.936Z,3.03
2018-04-28T16:49:47.452Z,3.10
2018-04-28T16:52:14.876Z,5.70
2018-04-28T16:54:42.317Z,3.40
2018-04-28T16:57:09.768Z,4.80
2018-04-28T16:59:37.188Z,4.87
2018-04-28T17:02:04.614Z,2.70
2018-04-28T17:04:32.118Z,9.20
2018-04-28T17:06:59.548Z,4.50
2018-04-28T17:09:26.972Z,2.60
2018-04-28T17:11:54.422Z,5.03
2018-04-28T17:14:21.947Z,3.10
2018-04-28T17:16:49.393Z,3.90
2018-04-28T17:19:16.852Z,12.50
2018-04-28T17:21:44.277Z,7.40
2018-04-28T17:24:11.705Z,2.60
2018-04-28T17:26:39.226Z,2.37
2018-04-28T17:29:06.589Z,5.27
2018-04-28T17:31:34.163Z,15.17
2018-04-28T17:34:01.697Z,4.63
2018-04-28T17:36:29.141Z,2.70
2018-04-28T17:38:56.569Z,2.57
2018-04-28T17:41:24.077Z,3.07
2018-04-28T17:43:51.510Z,2.47
2018-04-28T17:46:18.945Z,2.63
2018-04-28T17:48:46.389Z,2.50
2018-04-28T17:51:13.812Z,5.00
2018-04-28T17:53:41.261Z,2.73
2018-04-28T17:56:08.707Z,2.87
2018-04-28T17:58:36.128Z,2.97
2018-04-28T18:01:03.826Z,4.30
2018-04-28T18:03:31.265Z,6.60
2018-04-28T18:05:58.699Z,3.33
2018-04-28T18:08:26.130Z,2.90
2018-04-28T18:10:53.570Z,2.90
2018-04-28T18:13:20.998Z,3.43
2018-04-28T18:15:48.420Z,2.90
2018-04-28T18:18:15.901Z,2.93
2018-04-28T18:20:43.333Z,2.93
2018-04-28T18:23:10.813Z,2.33
2018-04-28T18:25:38.273Z,2.43
2018-04-28T18:28:05.725Z,4.30
2018-04-28T18:30:33.161Z,4.73
2018-04-28T18:33:00.597Z,4.03
2018-04-28T18:35:28.029Z,4.47
2018-04-28T18:37:55.449Z,4.57
2018-04-28T18:40:22.885Z,4.40
2018-04-28T18:42:50.396Z,3.27
2018-04-28T18:45:17.818Z,3.27
2018-04-28T18:47:45.259Z,3.37
2018-04-28T18:50:12.710Z,13.27
2018-04-28T18:52:40.144Z,5.80
2018-04-28T18:55:07.588Z,5.57
2018-04-28T18:57:35.039Z,4.50
2018-04-28T19:00:02.461Z,3.87
2018-04-28T19:02:29.930Z,10.17
2018-04-28T19:04:57.360Z,6.40
2018-04-28T19:07:24.802Z,5.37
2018-04-28T19:09:52.272Z,5.10
2018-04-28T19:12:19.713Z,4.47
2018-04-28T19:14:47.146Z,4.30
2018-04-28T19:17:14.587Z,4.17
2018-04-28T19:19:42.019Z,4.00
2018-04-28T19:22:09.524Z,3.97
2018-04-28T19:24:36.957Z,5.17
2018-04-28T19:27:04.401Z,5.50
2018-04-28T19:29:31.840Z,6.90
2018-04-28T19:31:59.278Z,5.03
2018-04-28T19:34:26.740Z,5.12
2018-04-28T19:36:54.176Z,3.90
2018-04-28T19:39:21.629Z,4.20
2018-04-28T19:41:49.049Z,3.90
2018-04-28T19:44:16.485Z,4.97
2018-04-28T19:46:43.960Z,5.73
2018-04-28T19:49:11.386Z,4.00
2018-04-28T19:51:38.844Z,9.53
2018-04-28T19:54:06.301Z,8.80
2018-04-28T19:56:33.788Z,7.00
2018-04-28T19:59:01.216Z,4.67
2018-04-28T20:01:28.663Z,4.07
2018-04-28T20:03:56.099Z,5.80
2018-04-28T20:06:23.520Z,5.00
2018-04-28T20:08:51.066Z,4.17
2018-04-28T20:11:18.497Z,5.90
2018-04-28T20:13:45.993Z,5.03
2018-04-28T20:16:13.433Z,5.37
2018-04-28T20:18:40.904Z,4.80
2018-04-28T20:21:08.331Z,4.70
2018-04-28T20:23:47.577Z,4.90
2018-04-28T20:26:15.010Z,4.17
2018-04-28T20:28:42.505Z,4.83
2018-04-28T20:31:09.961Z,5.83
2018-04-28T20:33:37.522Z,5.20
2018-04-28T20:36:05.055Z,5.10
2018-04-28T20:38:32.429Z,7.77
2018-04-28T20:40:59.858Z,5.70
2018-04-28T20:43:27.336Z,5.10
2018-04-28T20:45:56.596Z,4.77
2018-04-28T20:48:24.043Z,4.40
2018-04-28T20:50:51.560Z,4.00
2018-04-28T20:53:19.001Z,4.50
2018-04-28T20:55:46.437Z,4.80
2018-04-28T20:58:13.968Z,4.30
2018-04-28T21:00:41.449Z,4.67
2018-04-28T21:03:08.876Z,4.60
2018-04-28T21:05:36.308Z,4.20
2018-04-28T21:08:03.750Z,4.97
2018-04-28T21:10:32.415Z,4.70
2018-04-28T21:13:00.352Z,4.23
2018-04-28T21:15:27.802Z,4.87
2018-04-28T21:17:55.235Z,4.83
2018-04-28T21:20:22.685Z,4.57
2018-04-28T21:22:50.129Z,4.70
2018-04-28T21:25:17.961Z,9.70
2018-04-28T21:27:45.417Z,4.93
2018-04-28T21:30:12.853Z,5.40
2018-04-28T21:32:40.281Z,5.03
2018-04-28T21:35:07.803Z,5.82
2018-04-28T21:37:35.397Z,5.93
2018-04-28T21:40:02.885Z,5.37
2018-04-28T21:42:30.414Z,4.93
2018-04-28T21:44:57.849Z,5.77
2018-04-28T21:47:25.281Z,5.13
2018-04-28T21:49:52.705Z,4.80
2018-04-28T21:52:20.152Z,6.10
2018-04-28T21:54:47.596Z,5.20
2018-04-28T21:57:15.037Z,4.80
2018-04-28T21:59:42.475Z,5.30
2018-04-28T22:02:09.927Z,5.13
2018-04-28T22:04:37.370Z,6.03
2018-04-28T22:07:04.815Z,4.80
2018-04-28T22:09:32.247Z,5.53
2018-04-28T22:11:59.696Z,5.30
2018-04-28T22:14:27.164Z,5.83
2018-04-28T22:16:54.601Z,5.83
2018-04-28T22:19:22.061Z,6.00
2018-04-28T22:21:49.506Z,4.90
2018-04-28T22:24:16.938Z,5.47
2018-04-28T22:26:44.362Z,4.50
2018-04-28T22:29:11.907Z,4.40
2018-04-28T22:31:39.343Z,5.30
2018-04-28T22:34:06.780Z,5.60
2018-04-28T22:36:34.212Z,4.80
2018-04-28T22:39:01.635Z,5.37
2018-04-28T22:41:29.161Z,4.60
2018-04-28T22:43:56.605Z,5.70
2018-04-28T22:46:24.081Z,5.90
2018-04-28T22:48:51.509Z,5.80
2018-04-28T22:51:19.012Z,5.10
2018-04-28T22:53:46.451Z,6.10
2018-04-28T22:56:13.922Z,5.03
2018-04-28T22:58:41.795Z,5.00
2018-04-28T23:01:09.256Z,5.10
2018-04-28T23:03:36.688Z,5.13
2018-04-28T23:06:04.213Z,5.50
2018-04-28T23:08:31.706Z,5.87
2018-04-28T23:10:59.184Z,5.53
2018-04-28T23:13:26.616Z,5.60
2018-04-28T23:15:54.054Z,5.50
2018-04-28T23:18:21.472Z,6.30
2018-04-28T23:20:48.914Z,6.30
2018-04-28T23:23:16.346Z,7.07
2018-04-28T23:25:43.809Z,5.60
2018-04-28T23:28:11.404Z,6.40
2018-04-28T23:30:38.967Z,6.30
2018-04-28T23:33:06.489Z,6.60
2018-04-28T23:35:34.011Z,6.20
2018-04-28T23:38:01.497Z,6.37
2018-04-28T23:40:28.957Z,7.10
2018-04-28T23:42:56.389Z,7.10
2018-04-28T23:45:23.861Z,7.57
2018-04-28T23:47:51.333Z,6.30
2018-04-28T23:50:18.765Z,6.70
2018-04-28T23:52:46.195Z,6.67
2018-04-28T23:55:13.621Z,6.50
2018-04-28T23:57:41.059Z,6.73
